Terminal Aerodrome Forecast
Issued by NWS

Home | Current Version | Previous Version | Text Only | Print | Product List | Glossary On
Versions: 1 2 3 4 5 6 7 8 9 10 11 12 13 14 15
000
FTUS44 KLZK 121700
TAFLLQ
TAF
KLLQ 121725Z 1218/1318 13006KT P6SM SCT040
     FM130100 16003KT P6SM SKC
     FM131500 21006KT P6SM SKC=

USA.gov is the U.S. government's official web portal to all federal, state and local government web resources and services.